Webberville, Texas
Current Conditions -  °F | °C
As of 6:55 AM on Saturday 20 Dec 2014 (Local Time) from KEDC Reporting Station
Haze Haze  
Wind Chill: 45°   Ceiling: 1500
Heat Index: 48°   Visibility: 6mi
Dew Point: 45°   Wind: 7mph
Humidity: 87%   Direction: 10°N
Pressure: 30.22"   Gusts: NA
Location:  30.352°N, 97.5205°W
Report Text: KEDC 201255Z AUTO 01006KT 6SM BR OVC015 09/07 A3022 RMK AO2
Loading
Personal Weather Stations






























Interactive Weather Map New forecast layout! Learn more

10-Day Weather Forecast

Advertisements
Track Severe Weather on mobile